createdAt,value
2018-01-15T00:00:07.089Z,95972.33
2018-01-15T00:02:36.139Z,95972.58
2018-01-15T00:05:05.228Z,95967.42
2018-01-15T00:07:34.277Z,95971.36
2018-01-15T00:10:03.321Z,95965.78
2018-01-15T00:12:32.373Z,95965.04
2018-01-15T00:15:01.431Z,95963.13
2018-01-15T00:17:30.778Z,95956.44
2018-01-15T00:19:59.880Z,95954.39
2018-01-15T00:22:33.101Z,95956.75
2018-01-15T00:25:02.153Z,95954.94
2018-01-15T00:27:31.205Z,95955.60
2018-01-15T00:30:00.266Z,95950.46
2018-01-15T00:32:29.338Z,95951.66
2018-01-15T00:34:58.377Z,95952.02
2018-01-15T00:37:27.437Z,95949.88
2018-01-15T00:39:56.669Z,95945.02
2018-01-15T00:42:25.682Z,95947.25
2018-01-15T00:44:54.743Z,95944.78
2018-01-15T00:47:23.804Z,95943.05
2018-01-15T00:49:52.869Z,95944.38
2018-01-15T00:52:21.942Z,95945.95
2018-01-15T00:54:50.997Z,95943.95
2018-01-15T00:57:20.074Z,95944.98
2018-01-15T00:59:49.125Z,95946.17
2018-01-15T01:02:18.178Z,95946.00
2018-01-15T01:04:47.276Z,95942.05
2018-01-15T01:07:16.299Z,95944.94
2018-01-15T01:09:45.357Z,95943.09
2018-01-15T01:12:14.393Z,95943.62
2018-01-15T01:14:43.473Z,95944.11
2018-01-15T01:17:12.537Z,95942.78
2018-01-15T01:19:41.621Z,95943.69
2018-01-15T01:22:10.677Z,95941.32
2018-01-15T01:24:39.726Z,95940.50
2018-01-15T01:29:44.044Z,95945.03
2018-01-15T01:32:13.089Z,95938.02
2018-01-15T01:34:42.181Z,95930.83
2018-01-15T01:37:11.223Z,95931.69
2018-01-15T01:39:40.313Z,95931.73
2018-01-15T01:42:09.357Z,95930.78
2018-01-15T01:44:38.415Z,95927.66
2018-01-15T01:47:07.474Z,95929.98
2018-01-15T01:49:36.533Z,95929.20
2018-01-15T01:52:05.597Z,95929.81
2018-01-15T01:57:09.950Z,95920.66
2018-01-15T01:59:39.033Z,95922.17
2018-01-15T02:02:08.089Z,95919.67
2018-01-15T02:04:37.157Z,95921.73
2018-01-15T02:07:06.198Z,95919.90
2018-01-15T02:09:35.268Z,95923.68
2018-01-15T02:12:04.341Z,95929.28
2018-01-15T02:14:33.401Z,95925.58
2018-01-15T02:17:02.437Z,95930.80
2018-01-15T02:19:31.504Z,95928.00
2018-01-15T02:22:00.591Z,95932.98
2018-01-15T02:24:29.665Z,95930.23
2018-01-15T02:26:58.712Z,95926.61
2018-01-15T02:29:27.769Z,95919.98
2018-01-15T02:31:56.826Z,95913.97
2018-01-15T02:34:25.864Z,95910.69
2018-01-15T02:36:54.909Z,95909.78
2018-01-15T02:39:23.969Z,95906.89
2018-01-15T02:41:53.014Z,95909.69
2018-01-15T02:44:22.061Z,95908.98
2018-01-15T02:46:52.179Z,95907.62
2018-01-15T02:49:21.216Z,95903.81
2018-01-15T02:51:50.277Z,95900.14
2018-01-15T02:54:19.318Z,95902.36
2018-01-15T02:56:48.409Z,95903.11
2018-01-15T02:59:17.453Z,95900.71
2018-01-15T03:01:46.534Z,95898.78
2018-01-15T03:04:15.589Z,95898.91
2018-01-15T03:06:44.641Z,95894.91
2018-01-15T03:09:13.715Z,95896.35
2018-01-15T03:11:42.769Z,95893.31
2018-01-15T03:14:11.817Z,95889.80
2018-01-15T03:16:40.864Z,95888.00
2018-01-15T03:19:09.921Z,95888.45
2018-01-15T03:21:38.980Z,95880.94
2018-01-15T03:24:08.026Z,95877.00
2018-01-15T03:26:37.077Z,95873.48
2018-01-15T03:29:06.131Z,95872.84
2018-01-15T03:31:35.177Z,95871.85
2018-01-15T03:34:04.242Z,95870.73
2018-01-15T03:36:33.294Z,95867.23
2018-01-15T03:39:02.367Z,95863.47
2018-01-15T03:41:31.405Z,95860.59
2018-01-15T03:44:00.446Z,95865.63
2018-01-15T03:46:34.666Z,95866.36
2018-01-15T03:49:03.873Z,95862.11
2018-01-15T03:51:32.914Z,95860.10
2018-01-15T03:54:01.992Z,95860.86
2018-01-15T03:56:31.035Z,95857.52
2018-01-15T03:59:00.102Z,95861.21
2018-01-15T04:01:29.366Z,95853.23
2018-01-15T04:03:58.417Z,95858.86
2018-01-15T04:06:27.465Z,95859.08
2018-01-15T04:08:56.521Z,95854.06
2018-01-15T04:11:25.573Z,95852.27
2018-01-15T04:13:55.290Z,95850.73
2018-01-15T04:16:24.323Z,95851.17
2018-01-15T04:18:57.807Z,95849.03
2018-01-15T04:21:27.005Z,95851.67
2018-01-15T04:23:56.044Z,95850.20
2018-01-15T04:26:25.094Z,95851.09
2018-01-15T04:28:54.142Z,95847.06
2018-01-15T04:31:23.192Z,95846.08
2018-01-15T04:33:52.237Z,95846.83
2018-01-15T04:36:21.305Z,95845.86
2018-01-15T04:38:50.365Z,95842.94
2018-01-15T04:41:19.413Z,95835.94
2018-01-15T04:43:48.465Z,95837.28
2018-01-15T04:46:17.526Z,95832.70
2018-01-15T04:48:46.612Z,95833.90
2018-01-15T04:53:50.893Z,95832.53
2018-01-15T04:56:19.973Z,95840.53
2018-01-15T04:58:49.038Z,95836.31
2018-01-15T05:01:18.115Z,95834.56
2018-01-15T05:03:47.159Z,95832.30
2018-01-15T05:06:16.217Z,95826.71
2018-01-15T05:08:45.266Z,95821.03
2018-01-15T05:11:14.317Z,95824.59
2018-01-15T05:13:43.372Z,95821.69
2018-01-15T05:16:12.450Z,95821.05
2018-01-15T05:18:41.539Z,95816.11
2018-01-15T05:21:10.556Z,95814.70
2018-01-15T05:23:39.609Z,95814.43
2018-01-15T05:26:08.669Z,95826.64
2018-01-15T05:28:37.739Z,95818.95
2018-01-15T05:31:12.101Z,95821.98
2018-01-15T05:33:41.149Z,95817.45
2018-01-15T05:36:10.209Z,95818.19
2018-01-15T05:38:39.254Z,95817.11
2018-01-15T05:43:43.515Z,95820.91
2018-01-15T05:46:12.677Z,95817.13
2018-01-15T05:48:41.748Z,95818.84
2018-01-15T05:51:10.806Z,95813.06
2018-01-15T05:53:39.849Z,95816.33
2018-01-15T05:56:09.462Z,95813.61
2018-01-15T05:58:38.739Z,95809.33
2018-01-15T06:01:07.825Z,95807.89
2018-01-15T06:03:36.883Z,95814.56
2018-01-15T06:08:41.189Z,95804.13
2018-01-15T06:11:10.239Z,95804.38
2018-01-15T06:13:39.302Z,95809.20
2018-01-15T06:16:08.337Z,95811.94
2018-01-15T06:18:37.397Z,95823.55
2018-01-15T06:23:34.296Z,95818.14
2018-01-15T06:26:03.405Z,95809.58
2018-01-15T06:28:32.449Z,95803.95
2018-01-15T06:31:01.562Z,95799.84
2018-01-15T06:33:35.190Z,95806.55
2018-01-15T06:36:04.251Z,95800.09
2018-01-15T06:38:33.294Z,95800.11
2018-01-15T06:41:02.354Z,95802.11
2018-01-15T06:43:31.415Z,95798.16
2018-01-15T06:46:00.461Z,95789.98
2018-01-15T06:48:29.518Z,95797.48
2018-01-15T06:50:58.595Z,95797.25
2018-01-15T06:53:27.693Z,95800.80
2018-01-15T06:55:56.766Z,95801.11
2018-01-15T06:58:25.793Z,95806.88
2018-01-15T07:00:59.397Z,95796.88
2018-01-15T07:06:06.477Z,95795.93
2018-01-15T07:08:35.533Z,95797.08
2018-01-15T07:11:04.602Z,95802.98
2018-01-15T07:13:33.702Z,95801.64
2018-01-15T07:16:02.762Z,95804.67
2018-01-15T07:18:31.813Z,95809.40
2018-01-15T07:21:00.875Z,95811.23
2018-01-15T07:23:29.926Z,95805.50
2018-01-15T07:25:59.037Z,95808.20
2018-01-15T07:28:28.047Z,95814.84
2018-01-15T07:30:57.117Z,95814.91
2018-01-15T07:33:26.195Z,95814.97
2018-01-15T07:35:55.285Z,95814.05
2018-01-15T07:38:24.313Z,95809.42
2018-01-15T07:40:53.385Z,95812.81
2018-01-15T07:43:22.485Z,95807.45
2018-01-15T07:45:51.541Z,95807.19
2018-01-15T07:48:20.619Z,95801.59
2018-01-15T07:50:49.663Z,95802.44
2018-01-15T07:53:18.725Z,95802.56
2018-01-15T07:55:47.827Z,95797.25
2018-01-15T07:58:18.265Z,95795.17
2018-01-15T08:00:47.322Z,95795.25
2018-01-15T08:03:16.514Z,95798.17
2018-01-15T08:08:22.244Z,95779.45
2018-01-15T08:10:51.301Z,95783.66
2018-01-15T08:13:20.387Z,95777.20
2018-01-15T08:15:49.400Z,95782.39
2018-01-15T08:19:41.221Z,95785.64
2018-01-15T08:22:10.282Z,95784.78
2018-01-15T08:24:39.339Z,95779.89
2018-01-15T08:27:08.411Z,95779.98
2018-01-15T08:29:37.442Z,95777.91
2018-01-15T08:32:06.514Z,95783.27
2018-01-15T08:34:35.557Z,95777.19
2018-01-15T08:37:04.609Z,95770.56
2018-01-15T08:39:40.025Z,95774.20
2018-01-15T08:42:09.391Z,95775.30
2018-01-15T08:44:38.449Z,95775.06
2018-01-15T08:47:07.488Z,95768.34
2018-01-15T08:49:36.522Z,95767.50
2018-01-15T08:52:05.623Z,95767.63
2018-01-15T08:54:34.654Z,95762.87
2018-01-15T08:57:03.698Z,95763.91
2018-01-15T09:02:07.962Z,95758.72
2018-01-15T09:04:36.997Z,95758.22
2018-01-15T09:07:06.064Z,95757.27
2018-01-15T09:09:35.097Z,95754.67
2018-01-15T09:12:04.137Z,95758.83
2018-01-15T09:14:33.193Z,95744.77
2018-01-15T09:17:02.263Z,95743.50
2018-01-15T09:22:10.509Z,95744.74
2018-01-15T09:24:39.550Z,95736.97
2018-01-15T09:27:08.643Z,95736.62
2018-01-15T09:32:13.439Z,95726.17
2018-01-15T09:34:42.479Z,95723.00
2018-01-15T09:37:11.548Z,95719.61
2018-01-15T09:39:40.590Z,95718.09
2018-01-15T09:42:11.437Z,95710.78
2018-01-15T09:44:44.661Z,95711.95
2018-01-15T09:49:50.174Z,95709.48
2018-01-15T09:52:19.232Z,95701.56
2018-01-15T09:54:49.513Z,95698.44
2018-01-15T09:57:18.567Z,95697.31
2018-01-15T09:59:47.796Z,95696.19
2018-01-15T10:02:16.829Z,95690.24
2018-01-15T10:04:45.902Z,95683.14
2018-01-15T10:07:14.949Z,95681.70
2018-01-15T10:09:44.002Z,95673.17
2018-01-15T10:12:13.078Z,95673.36
2018-01-15T10:14:42.124Z,95676.62
2018-01-15T10:17:11.161Z,95672.09
2018-01-15T10:19:40.209Z,95671.84
2018-01-15T10:22:09.289Z,95667.46
2018-01-15T10:27:13.638Z,95654.70
2018-01-15T10:29:42.634Z,95649.37
2018-01-15T10:32:11.674Z,95644.75
2018-01-15T10:34:40.721Z,95629.95
2018-01-15T10:37:09.835Z,95627.94
2018-01-15T10:39:38.890Z,95615.48
2018-01-15T10:42:08.024Z,95612.30
2018-01-15T10:44:37.205Z,95609.88
2018-01-15T10:47:06.254Z,95606.91
2018-01-15T10:49:35.297Z,95602.77
2018-01-15T10:52:04.345Z,95596.03
2018-01-15T10:54:33.376Z,95586.41
2018-01-15T10:57:02.420Z,95578.91
2018-01-15T10:59:31.466Z,95577.25
2018-01-15T11:02:00.542Z,95565.86
2018-01-15T11:07:09.968Z,95559.23
2018-01-15T11:09:38.983Z,95553.59
2018-01-15T11:12:08.151Z,95545.84
2018-01-15T11:17:12.646Z,95530.25
2018-01-15T11:22:17.105Z,95529.55
2018-01-15T11:24:46.185Z,95522.62
2018-01-15T11:29:50.621Z,95509.63
2018-01-15T11:32:20.703Z,95507.52
2018-01-15T11:34:50.469Z,95496.70
2018-01-15T11:37:19.533Z,95485.73
2018-01-15T11:39:49.828Z,95483.47
2018-01-15T11:42:18.877Z,95479.79
2018-01-15T11:47:23.269Z,95461.90
2018-01-15T11:49:52.316Z,95460.99
2018-01-15T11:52:21.377Z,95458.08
2018-01-15T11:54:51.413Z,95448.88
2018-01-15T11:57:20.457Z,95444.81
2018-01-15T11:59:50.765Z,95430.13
2018-01-15T12:02:19.785Z,95433.83
2018-01-15T12:04:50.092Z,95417.32
2018-01-15T12:07:19.145Z,95409.52
2018-01-15T12:09:49.125Z,95399.47
2018-01-15T12:12:18.209Z,95393.47
2018-01-15T12:17:23.729Z,95387.09
2018-01-15T12:19:52.793Z,95380.36
2018-01-15T12:22:21.836Z,95376.83
2018-01-15T12:24:51.691Z,95373.84
2018-01-15T12:27:20.677Z,95368.69
2018-01-15T12:29:50.735Z,95368.27
2018-01-15T12:32:19.772Z,95365.31
2018-01-15T12:34:49.716Z,95357.42
2018-01-15T12:37:18.765Z,95350.89
2018-01-15T12:39:48.891Z,95343.78
2018-01-15T12:42:17.971Z,95337.08
2018-01-15T12:47:22.309Z,95332.22
2018-01-15T12:52:31.947Z,95324.72
2018-01-15T12:55:01.042Z,95323.65
2018-01-15T12:57:30.079Z,95316.24
2018-01-15T13:02:34.421Z,95307.83
2018-01-15T13:07:57.538Z,95297.08
2018-01-15T13:10:26.549Z,95292.22
2018-01-15T13:12:55.607Z,95287.19
2018-01-15T13:15:30.803Z,95281.50
2018-01-15T13:17:59.852Z,95276.73
2018-01-15T13:20:28.984Z,95270.34
2018-01-15T13:22:58.001Z,95267.83
2018-01-15T13:25:27.040Z,95266.86
2018-01-15T13:27:56.082Z,95261.57
2018-01-15T13:30:25.119Z,95257.63
2018-01-15T13:32:55.053Z,95264.41
2018-01-15T13:35:24.093Z,95262.81
2018-01-15T13:37:53.131Z,95261.58
2018-01-15T13:40:22.184Z,95261.44
2018-01-15T13:42:51.241Z,95257.63
2018-01-15T13:45:20.345Z,95252.22
2018-01-15T13:47:49.369Z,95249.01
2018-01-15T13:52:57.574Z,95250.52
2018-01-15T13:55:26.646Z,95241.27
2018-01-15T13:57:56.573Z,95250.44
2018-01-15T14:00:25.608Z,95243.84
2018-01-15T14:02:54.647Z,95235.61
2018-01-15T14:05:29.125Z,95236.09
2018-01-15T14:10:33.626Z,95234.86
2018-01-15T14:13:02.661Z,95225.86
2018-01-15T14:18:07.794Z,95217.38
2018-01-15T14:20:36.810Z,95216.52
2018-01-15T14:23:05.859Z,95212.94
2018-01-15T14:25:34.893Z,95211.27
2018-01-15T14:28:03.915Z,95213.17
2018-01-15T14:33:09.219Z,95205.36
2018-01-15T14:35:38.261Z,95200.42
2018-01-15T14:38:07.309Z,95194.39
2018-01-15T14:40:36.333Z,95190.91
2018-01-15T14:45:40.572Z,95174.19
2018-01-15T14:48:09.634Z,95170.92
2018-01-15T14:53:05.603Z,95170.77
2018-01-15T14:55:34.634Z,95165.75
2018-01-15T14:58:07.901Z,95161.17
2018-01-15T15:00:36.917Z,95153.97
2018-01-15T15:05:41.145Z,95148.43
2018-01-15T15:08:10.214Z,95144.05
2018-01-15T15:10:39.266Z,95138.98
2018-01-15T15:13:08.316Z,95131.16
2018-01-15T15:15:37.360Z,95135.05
2018-01-15T15:18:06.408Z,95126.74
2018-01-15T15:20:35.436Z,95123.13
2018-01-15T15:23:04.468Z,95118.71
2018-01-15T15:25:33.491Z,95108.19
2018-01-15T15:30:37.858Z,95090.67
2018-01-15T15:33:06.892Z,95086.34
2018-01-15T15:35:35.952Z,95078.38
2018-01-15T15:38:05.018Z,95068.14
2018-01-15T15:40:33.999Z,95065.04
2018-01-15T15:43:03.036Z,95057.95
2018-01-15T15:45:32.132Z,95054.84
2018-01-15T15:48:01.127Z,95050.18
2018-01-15T15:50:30.161Z,95045.73
2018-01-15T15:52:59.199Z,95035.72
2018-01-15T15:55:28.302Z,95028.88
2018-01-15T15:57:57.408Z,95024.89
2018-01-15T16:00:33.135Z,95028.39
2018-01-15T16:03:02.137Z,95023.39
2018-01-15T16:05:36.395Z,95010.81
2018-01-15T16:08:05.657Z,95005.97
2018-01-15T16:15:46.133Z,94991.97
2018-01-15T16:18:15.198Z,94987.01
2018-01-15T16:20:44.230Z,94982.73
2018-01-15T16:23:13.256Z,94977.91
2018-01-15T16:25:42.298Z,94961.16
2018-01-15T16:28:11.333Z,94961.44
2018-01-15T16:30:40.371Z,94960.20
2018-01-15T16:33:09.419Z,94950.83
2018-01-15T16:35:38.450Z,94945.64
2018-01-15T16:38:10.621Z,94941.63
2018-01-15T16:40:39.667Z,94940.29
2018-01-15T16:43:08.705Z,94943.17
2018-01-15T16:45:37.744Z,94936.16
2018-01-15T16:48:06.795Z,94935.13
2018-01-15T16:50:35.839Z,94926.16
2018-01-15T16:53:04.857Z,94914.98
2018-01-15T16:55:33.942Z,94904.88
2018-01-15T16:58:02.953Z,94896.69
2018-01-15T17:00:32.058Z,94888.89
2018-01-15T17:03:01.057Z,94891.36
2018-01-15T17:05:30.093Z,94890.16
2018-01-15T17:07:59.158Z,94880.98
2018-01-15T17:10:28.181Z,94876.23
2018-01-15T17:12:57.206Z,94871.81
2018-01-15T17:15:26.290Z,94866.19
2018-01-15T17:17:55.298Z,94857.47
2018-01-15T17:20:24.335Z,94851.52
2018-01-15T17:22:53.368Z,94846.34
2018-01-15T17:25:22.424Z,94835.60
2018-01-15T17:27:52.105Z,94828.48
2018-01-15T17:30:21.163Z,94818.70
2018-01-15T17:32:50.962Z,94818.89
2018-01-15T17:37:55.225Z,94814.80
2018-01-15T17:40:24.293Z,94813.00
2018-01-15T17:42:53.337Z,94810.72
2018-01-15T17:45:22.409Z,94810.11
2018-01-15T17:47:51.499Z,94809.95
2018-01-15T17:50:21.206Z,94806.53
2018-01-15T17:52:50.255Z,94799.07
2018-01-15T17:55:20.113Z,94795.06
2018-01-15T17:57:49.238Z,94793.83
2018-01-15T18:00:19.077Z,94787.20
2018-01-15T18:02:48.117Z,94780.46
2018-01-15T18:05:17.493Z,94772.51
2018-01-15T18:07:46.492Z,94758.48
2018-01-15T18:10:15.535Z,94757.70
2018-01-15T18:12:44.571Z,94762.33
2018-01-15T18:15:13.637Z,94759.09
2018-01-15T18:17:42.673Z,94760.21
2018-01-15T18:20:12.051Z,94753.86
2018-01-15T18:22:41.053Z,94763.95
2018-01-15T18:25:10.084Z,94753.30
2018-01-15T18:27:39.122Z,94753.99
2018-01-15T18:30:08.136Z,94749.45
2018-01-15T18:32:37.180Z,94745.66
2018-01-15T18:35:06.218Z,94748.44
2018-01-15T18:37:35.265Z,94741.11
2018-01-15T18:40:04.294Z,94731.25
2018-01-15T18:42:33.328Z,94724.95
2018-01-15T18:45:02.366Z,94721.58
2018-01-15T18:47:31.485Z,94718.02
2018-01-15T18:50:00.467Z,94707.42
2018-01-15T18:52:29.505Z,94698.13
2018-01-15T18:54:58.537Z,94696.03
2018-01-15T18:57:28.533Z,94702.66
2018-01-15T18:59:57.573Z,94709.90
2018-01-15T19:02:28.775Z,94710.97
2018-01-15T19:04:57.810Z,94710.02
2018-01-15T19:07:26.860Z,94706.78
2018-01-15T19:09:57.413Z,94711.62
2018-01-15T19:12:26.973Z,94712.83
2018-01-15T19:14:56.159Z,94712.47
2018-01-15T19:17:25.324Z,94714.22
2018-01-15T19:19:54.347Z,94722.36
2018-01-15T19:22:23.368Z,94723.86
2018-01-15T19:24:52.516Z,94715.03
2018-01-15T19:27:22.348Z,94716.41
2018-01-15T19:29:51.380Z,94714.08
2018-01-15T19:32:20.425Z,94711.87
2018-01-15T19:35:06.167Z,94708.81
2018-01-15T19:37:52.861Z,94699.58
2018-01-15T19:40:22.088Z,94692.89
2018-01-15T19:42:51.129Z,94694.63
2018-01-15T19:48:05.097Z,94694.06
2018-01-15T19:50:44.909Z,94694.48
2018-01-15T19:53:19.427Z,94692.03
2018-01-15T19:59:03.380Z,94695.13
2018-01-15T20:01:59.583Z,94706.95
2018-01-15T20:04:51.807Z,94710.37
2018-01-15T20:10:05.485Z,94716.59
2018-01-15T20:12:34.562Z,94723.22
2018-01-15T20:15:03.893Z,94721.93
2018-01-15T20:17:33.042Z,94713.20
2018-01-15T20:20:02.093Z,94718.33
2018-01-15T20:22:31.130Z,94715.83
2018-01-15T20:25:00.217Z,94706.52
2018-01-15T20:27:29.221Z,94703.63
2018-01-15T20:29:58.263Z,94698.83
2018-01-15T20:32:28.140Z,94685.66
2018-01-15T20:37:32.485Z,94674.41
2018-01-15T20:40:01.562Z,94666.77
2018-01-15T20:42:30.602Z,94660.19
2018-01-15T20:44:59.686Z,94651.27
2018-01-15T20:47:28.694Z,94646.81
2018-01-15T20:49:57.758Z,94640.02
2018-01-15T20:52:26.789Z,94634.21
2018-01-15T20:54:55.849Z,94628.16
2018-01-15T20:57:24.886Z,94615.58
2018-01-15T20:59:54.061Z,94608.67
2018-01-15T21:02:23.118Z,94604.02
2018-01-15T21:04:52.216Z,94610.05
2018-01-15T21:07:21.277Z,94610.69
2018-01-15T21:09:50.330Z,94627.22
2018-01-15T21:12:21.300Z,94618.17
2018-01-15T21:14:50.341Z,94598.59
2018-01-15T21:17:20.018Z,94629.45
2018-01-15T21:22:24.265Z,94598.05
2018-01-15T21:25:02.713Z,94593.25
2018-01-15T21:27:33.462Z,94584.52
2018-01-15T21:35:29.363Z,94605.88
2018-01-15T21:37:58.396Z,94600.27
2018-01-15T21:40:35.697Z,94583.75
2018-01-15T21:43:10.532Z,94586.59
2018-01-15T21:45:46.568Z,94589.42
2018-01-15T21:48:15.909Z,94607.69
2018-01-15T21:50:44.957Z,94588.77
2018-01-15T21:53:14.020Z,94575.61
2018-01-15T21:55:43.108Z,94568.66
2018-01-15T21:58:14.149Z,94555.16
2018-01-15T22:00:43.186Z,94553.83
2018-01-15T22:03:12.380Z,94540.07
2018-01-15T22:05:47.733Z,94531.09
2018-01-15T22:08:16.981Z,94538.64
2018-01-15T22:13:34.902Z,94500.34
2018-01-15T22:16:03.958Z,94517.25
2018-01-15T22:18:36.375Z,94514.06
2018-01-15T22:23:41.802Z,94523.95
2018-01-15T22:26:14.787Z,94524.72
2018-01-15T22:28:43.825Z,94541.72
2018-01-15T22:31:13.270Z,94527.01
2018-01-15T22:33:43.093Z,94506.20
2018-01-15T22:36:15.874Z,94493.50
2018-01-15T22:38:44.918Z,94484.73
2018-01-15T22:41:24.743Z,94475.45
2018-01-15T22:43:57.640Z,94479.28
2018-01-15T22:46:26.674Z,94484.84
2018-01-15T22:48:55.731Z,94449.92
2018-01-15T22:51:26.664Z,94457.56
2018-01-15T22:53:56.689Z,94464.86
2018-01-15T22:56:26.665Z,94442.45
2018-01-15T22:58:55.718Z,94426.03
2018-01-15T23:01:25.743Z,94423.19
2018-01-15T23:06:30.013Z,94421.62
2018-01-15T23:08:59.051Z,94427.56
2018-01-15T23:11:28.074Z,94413.20
2018-01-15T23:13:57.145Z,94417.98
2018-01-15T23:16:26.161Z,94422.73
2018-01-15T23:18:55.233Z,94403.60
2018-01-15T23:21:24.284Z,94403.44
2018-01-15T23:23:53.337Z,94395.73
2018-01-15T23:26:22.367Z,94398.55
2018-01-15T23:28:51.413Z,94392.07
2018-01-15T23:31:20.449Z,94378.77
2018-01-15T23:33:49.481Z,94377.86
2018-01-15T23:36:18.518Z,94380.17
2018-01-15T23:41:27.023Z,94382.08
2018-01-15T23:43:56.053Z,94363.69
2018-01-15T23:49:06.393Z,94363.21
2018-01-15T23:51:35.435Z,94351.85
2018-01-15T23:54:06.413Z,94344.91
2018-01-15T23:56:35.444Z,94327.20
